sensor_id;sensor_type;location;lat;lon;timestamp;temperature;humidity
12602;DHT22;30282;16.436;99.370;2023-04-05T00:01:35;27.10;99.90
12602;DHT22;30282;16.436;99.370;2023-04-05T00:04:10;27.10;99.90
12602;DHT22;30282;16.436;99.370;2023-04-05T00:06:40;27.10;99.90
12602;DHT22;30282;16.436;99.370;2023-04-05T00:09:09;27.00;99.90
12602;DHT22;30282;16.436;99.370;2023-04-05T00:11:39;27.00;99.90
12602;DHT22;30282;16.436;99.370;2023-04-05T00:14:08;26.90;99.90
12602;DHT22;30282;16.436;99.370;2023-04-05T00:16:37;26.80;99.90
12602;DHT22;30282;16.436;99.370;2023-04-05T00:19:08;26.60;99.90
12602;DHT22;30282;16.436;99.370;2023-04-05T00:21:39;26.60;99.90
12602;DHT22;30282;16.436;99.370;2023-04-05T00:24:08;26.70;99.90
12602;DHT22;30282;16.436;99.370;2023-04-05T00:26:41;26.70;99.90
12602;DHT22;30282;16.436;99.370;2023-04-05T00:29:11;26.80;99.90
12602;DHT22;30282;16.436;99.370;2023-04-05T00:31:43;26.90;99.90
12602;DHT22;30282;16.436;99.370;2023-04-05T00:34:14;27.00;99.90
12602;DHT22;30282;16.436;99.370;2023-04-05T00:36:44;27.00;99.90
12602;DHT22;30282;16.436;99.370;2023-04-05T00:39:14;27.10;99.90
12602;DHT22;30282;16.436;99.370;2023-04-05T00:41:43;27.00;99.90
12602;DHT22;30282;16.436;99.370;2023-04-05T00:44:12;27.00;99.90
12602;DHT22;30282;16.436;99.370;2023-04-05T00:46:41;27.00;99.90
12602;DHT22;30282;16.436;99.370;2023-04-05T00:49:11;27.00;99.90
12602;DHT22;30282;16.436;99.370;2023-04-05T00:51:42;27.00;99.90
12602;DHT22;30282;16.436;99.370;2023-04-05T00:54:11;27.00;99.90
12602;DHT22;30282;16.436;99.370;2023-04-05T00:56:41;27.00;99.90
12602;DHT22;30282;16.436;99.370;2023-04-05T00:59:11;27.00;99.90
12602;DHT22;30282;16.436;99.370;2023-04-05T01:01:40;27.00;99.90
12602;DHT22;30282;16.436;99.370;2023-04-05T01:04:10;27.10;99.90
12602;DHT22;30282;16.436;99.370;2023-04-05T01:06:51;27.10;99.90
12602;DHT22;30282;16.436;99.370;2023-04-05T01:09:35;27.30;99.90
12602;DHT22;30282;16.436;99.370;2023-04-05T01:12:06;27.40;99.90
12602;DHT22;30282;16.436;99.370;2023-04-05T01:14:45;27.50;99.90
12602;DHT22;30282;16.436;99.370;2023-04-05T01:17:16;27.60;99.90
12602;DHT22;30282;16.436;99.370;2023-04-05T01:19:48;27.70;99.90
12602;DHT22;30282;16.436;99.370;2023-04-05T01:22:40;27.80;99.90
12602;DHT22;30282;16.436;99.370;2023-04-05T01:25:27;27.90;99.90
12602;DHT22;30282;16.436;99.370;2023-04-05T01:28:17;28.00;99.90
12602;DHT22;30282;16.436;99.370;2023-04-05T01:30:56;28.00;99.90
12602;DHT22;30282;16.436;99.370;2023-04-05T01:33:34;28.10;99.90
12602;DHT22;30282;16.436;99.370;2023-04-05T01:36:09;28.20;99.90
12602;DHT22;30282;16.436;99.370;2023-04-05T01:38:47;28.20;99.90
12602;DHT22;30282;16.436;99.370;2023-04-05T01:41:16;28.30;99.90
12602;DHT22;30282;16.436;99.370;2023-04-05T01:43:46;28.40;99.90
12602;DHT22;30282;16.436;99.370;2023-04-05T01:46:18;28.40;99.90
12602;DHT22;30282;16.436;99.370;2023-04-05T01:48:47;28.40;99.90
12602;DHT22;30282;16.436;99.370;2023-04-05T01:51:16;28.50;99.90
12602;DHT22;30282;16.436;99.370;2023-04-05T01:53:46;28.60;99.90
12602;DHT22;30282;16.436;99.370;2023-04-05T01:56:16;28.70;99.90
12602;DHT22;30282;16.436;99.370;2023-04-05T01:58:45;28.80;99.90
12602;DHT22;30282;16.436;99.370;2023-04-05T02:01:16;28.90;99.90
12602;DHT22;30282;16.436;99.370;2023-04-05T02:03:45;29.10;99.90
12602;DHT22;30282;16.436;99.370;2023-04-05T02:06:14;29.20;99.90
12602;DHT22;30282;16.436;99.370;2023-04-05T02:08:43;29.30;99.90
12602;DHT22;30282;16.436;99.370;2023-04-05T02:11:12;29.30;99.90
12602;DHT22;30282;16.436;99.370;2023-04-05T02:13:42;29.30;99.90
12602;DHT22;30282;16.436;99.370;2023-04-05T02:16:11;29.40;99.90
12602;DHT22;30282;16.436;99.370;2023-04-05T02:18:42;29.40;99.90
12602;DHT22;30282;16.436;99.370;2023-04-05T02:21:16;29.60;99.90
12602;DHT22;30282;16.436;99.370;2023-04-05T02:23:47;29.70;99.90
12602;DHT22;30282;16.436;99.370;2023-04-05T02:26:16;29.80;99.90
12602;DHT22;30282;16.436;99.370;2023-04-05T02:28:45;30.00;99.90
12602;DHT22;30282;16.436;99.370;2023-04-05T02:31:15;30.10;99.90
12602;DHT22;30282;16.436;99.370;2023-04-05T02:33:46;30.20;99.90
12602;DHT22;30282;16.436;99.370;2023-04-05T02:36:15;30.30;99.90
12602;DHT22;30282;16.436;99.370;2023-04-05T02:38:44;30.40;99.90
12602;DHT22;30282;16.436;99.370;2023-04-05T02:41:13;30.50;99.90
12602;DHT22;30282;16.436;99.370;2023-04-05T02:43:42;30.60;99.90
12602;DHT22;30282;16.436;99.370;2023-04-05T02:46:12;30.70;99.90
12602;DHT22;30282;16.436;99.370;2023-04-05T02:48:41;30.80;99.90
12602;DHT22;30282;16.436;99.370;2023-04-05T02:51:12;30.90;99.90
12602;DHT22;30282;16.436;99.370;2023-04-05T02:53:41;31.00;99.90
12602;DHT22;30282;16.436;99.370;2023-04-05T02:56:11;31.10;99.90
12602;DHT22;30282;16.436;99.370;2023-04-05T02:58:40;31.20;99.90
12602;DHT22;30282;16.436;99.370;2023-04-05T03:01:09;31.30;99.90
12602;DHT22;30282;16.436;99.370;2023-04-05T03:03:38;31.40;99.90
12602;DHT22;30282;16.436;99.370;2023-04-05T03:06:08;31.50;99.90
12602;DHT22;30282;16.436;99.370;2023-04-05T03:08:39;31.60;99.90
12602;DHT22;30282;16.436;99.370;2023-04-05T03:11:10;31.70;99.90
12602;DHT22;30282;16.436;99.370;2023-04-05T03:13:39;31.70;99.90
12602;DHT22;30282;16.436;99.370;2023-04-05T03:16:08;31.90;99.90
12602;DHT22;30282;16.436;99.370;2023-04-05T03:18:38;31.90;99.90
12602;DHT22;30282;16.436;99.370;2023-04-05T03:21:07;32.10;99.90
12602;DHT22;30282;16.436;99.370;2023-04-05T03:23:40;32.20;99.90
12602;DHT22;30282;16.436;99.370;2023-04-05T03:26:09;32.40;99.90
12602;DHT22;30282;16.436;99.370;2023-04-05T03:28:38;32.40;99.90
12602;DHT22;30282;16.436;99.370;2023-04-05T03:31:10;32.50;99.90
12602;DHT22;30282;16.436;99.370;2023-04-05T03:33:40;32.60;99.90
12602;DHT22;30282;16.436;99.370;2023-04-05T03:36:09;32.70;99.90
12602;DHT22;30282;16.436;99.370;2023-04-05T03:38:45;32.80;99.90
12602;DHT22;30282;16.436;99.370;2023-04-05T03:41:15;32.80;99.90
12602;DHT22;30282;16.436;99.370;2023-04-05T03:43:44;32.90;99.90
12602;DHT22;30282;16.436;99.370;2023-04-05T03:46:14;33.00;99.90
12602;DHT22;30282;16.436;99.370;2023-04-05T03:48:43;33.00;99.90
12602;DHT22;30282;16.436;99.370;2023-04-05T03:51:13;33.20;99.90
12602;DHT22;30282;16.436;99.370;2023-04-05T03:53:42;33.30;99.90
12602;DHT22;30282;16.436;99.370;2023-04-05T03:56:13;33.20;99.90
12602;DHT22;30282;16.436;99.370;2023-04-05T03:58:42;33.30;99.90
12602;DHT22;30282;16.436;99.370;2023-04-05T04:01:12;33.40;99.90
12602;DHT22;30282;16.436;99.370;2023-04-05T04:03:41;33.60;99.90
12602;DHT22;30282;16.436;99.370;2023-04-05T04:06:10;33.70;99.90
12602;DHT22;30282;16.436;99.370;2023-04-05T04:08:39;33.80;99.90
12602;DHT22;30282;16.436;99.370;2023-04-05T04:11:08;33.80;99.90
12602;DHT22;30282;16.436;99.370;2023-04-05T04:13:39;33.90;99.90
12602;DHT22;30282;16.436;99.370;2023-04-05T04:16:08;34.00;99.90
12602;DHT22;30282;16.436;99.370;2023-04-05T04:18:38;34.00;99.90
12602;DHT22;30282;16.436;99.370;2023-04-05T04:21:07;34.10;99.90
12602;DHT22;30282;16.436;99.370;2023-04-05T04:23:36;34.30;99.90
12602;DHT22;30282;16.436;99.370;2023-04-05T04:26:06;34.30;99.90
12602;DHT22;30282;16.436;99.370;2023-04-05T04:28:35;34.30;99.90
12602;DHT22;30282;16.436;99.370;2023-04-05T04:31:10;34.20;99.90
12602;DHT22;30282;16.436;99.370;2023-04-05T04:33:39;34.40;99.90
12602;DHT22;30282;16.436;99.370;2023-04-05T04:36:10;34.40;99.90
12602;DHT22;30282;16.436;99.370;2023-04-05T04:38:40;34.60;99.90
12602;DHT22;30282;16.436;99.370;2023-04-05T04:41:10;34.60;99.90
12602;DHT22;30282;16.436;99.370;2023-04-05T04:43:39;34.80;99.90
12602;DHT22;30282;16.436;99.370;2023-04-05T04:46:12;34.90;99.90
12602;DHT22;30282;16.436;99.370;2023-04-05T04:48:42;34.90;99.90
12602;DHT22;30282;16.436;99.370;2023-04-05T04:51:12;34.90;99.90
12602;DHT22;30282;16.436;99.370;2023-04-05T04:53:41;34.90;99.90
12602;DHT22;30282;16.436;99.370;2023-04-05T04:56:11;34.90;99.90
12602;DHT22;30282;16.436;99.370;2023-04-05T04:58:40;34.80;99.90
12602;DHT22;30282;16.436;99.370;2023-04-05T05:01:11;34.90;99.90
12602;DHT22;30282;16.436;99.370;2023-04-05T05:03:41;35.10;99.90
12602;DHT22;30282;16.436;99.370;2023-04-05T05:06:10;35.10;99.90
12602;DHT22;30282;16.436;99.370;2023-04-05T05:08:39;35.20;99.90
12602;DHT22;30282;16.436;99.370;2023-04-05T05:11:09;35.40;99.90
12602;DHT22;30282;16.436;99.370;2023-04-05T05:13:38;35.50;99.90
12602;DHT22;30282;16.436;99.370;2023-04-05T05:16:10;35.50;99.90
12602;DHT22;30282;16.436;99.370;2023-04-05T05:18:39;35.50;99.90
12602;DHT22;30282;16.436;99.370;2023-04-05T05:21:08;35.60;99.90
12602;DHT22;30282;16.436;99.370;2023-04-05T05:23:37;35.60;98.60
12602;DHT22;30282;16.436;99.370;2023-04-05T05:26:09;35.70;99.10
12602;DHT22;30282;16.436;99.370;2023-04-05T05:28:40;35.70;98.40
12602;DHT22;30282;16.436;99.370;2023-04-05T05:31:11;35.50;98.90
12602;DHT22;30282;16.436;99.370;2023-04-05T05:33:40;35.70;98.80
12602;DHT22;30282;16.436;99.370;2023-04-05T05:36:11;35.70;98.70
12602;DHT22;30282;16.436;99.370;2023-04-05T05:38:40;35.80;97.60
12602;DHT22;30282;16.436;99.370;2023-04-05T05:41:10;35.90;98.10
12602;DHT22;30282;16.436;99.370;2023-04-05T05:43:40;36.00;98.50
12602;DHT22;30282;16.436;99.370;2023-04-05T05:46:09;36.20;98.20
12602;DHT22;30282;16.436;99.370;2023-04-05T05:48:42;36.30;97.60
12602;DHT22;30282;16.436;99.370;2023-04-05T05:51:12;36.30;96.40
12602;DHT22;30282;16.436;99.370;2023-04-05T05:53:41;36.30;95.40
12602;DHT22;30282;16.436;99.370;2023-04-05T05:56:10;36.30;95.80
12602;DHT22;30282;16.436;99.370;2023-04-05T05:58:40;36.40;96.50
12602;DHT22;30282;16.436;99.370;2023-04-05T06:01:09;36.50;96.10
12602;DHT22;30282;16.436;99.370;2023-04-05T06:03:40;36.50;95.90
12602;DHT22;30282;16.436;99.370;2023-04-05T06:06:10;36.50;95.60
12602;DHT22;30282;16.436;99.370;2023-04-05T06:08:39;36.70;95.50
12602;DHT22;30282;16.436;99.370;2023-04-05T06:11:25;36.70;93.50
12602;DHT22;30282;16.436;99.370;2023-04-05T06:13:54;36.70;94.00
12602;DHT22;30282;16.436;99.370;2023-04-05T06:16:23;36.80;93.10
12602;DHT22;30282;16.436;99.370;2023-04-05T06:18:54;36.70;92.40
12602;DHT22;30282;16.436;99.370;2023-04-05T06:21:23;36.50;92.90
12602;DHT22;30282;16.436;99.370;2023-04-05T06:23:53;36.50;93.20
12602;DHT22;30282;16.436;99.370;2023-04-05T06:26:23;36.50;92.70
12602;DHT22;30282;16.436;99.370;2023-04-05T06:28:54;36.60;92.50
12602;DHT22;30282;16.436;99.370;2023-04-05T06:31:26;36.80;92.30
12602;DHT22;30282;16.436;99.370;2023-04-05T06:34:00;36.90;90.50
12602;DHT22;30282;16.436;99.370;2023-04-05T06:36:30;37.00;90.10
12602;DHT22;30282;16.436;99.370;2023-04-05T06:39:00;37.00;91.10
12602;DHT22;30282;16.436;99.370;2023-04-05T06:41:29;37.10;91.40
12602;DHT22;30282;16.436;99.370;2023-04-05T06:43:58;37.10;91.40
12602;DHT22;30282;16.436;99.370;2023-04-05T06:46:28;37.10;88.70
12602;DHT22;30282;16.436;99.370;2023-04-05T06:49:01;37.10;88.40
12602;DHT22;30282;16.436;99.370;2023-04-05T06:51:30;37.10;90.00
12602;DHT22;30282;16.436;99.370;2023-04-05T06:54:02;37.10;89.10
12602;DHT22;30282;16.436;99.370;2023-04-05T06:56:37;37.20;91.00
12602;DHT22;30282;16.436;99.370;2023-04-05T06:59:07;37.20;90.70
12602;DHT22;30282;16.436;99.370;2023-04-05T07:01:36;37.20;86.80
12602;DHT22;30282;16.436;99.370;2023-04-05T07:04:07;37.20;86.30
12602;DHT22;30282;16.436;99.370;2023-04-05T07:06:37;37.20;88.20
12602;DHT22;30282;16.436;99.370;2023-04-05T07:09:06;37.30;85.80
12602;DHT22;30282;16.436;99.370;2023-04-05T07:11:36;37.30;86.10
12602;DHT22;30282;16.436;99.370;2023-04-05T07:14:05;37.30;87.00
12602;DHT22;30282;16.436;99.370;2023-04-05T07:16:35;37.40;86.70
12602;DHT22;30282;16.436;99.370;2023-04-05T07:19:06;37.40;85.80
12602;DHT22;30282;16.436;99.370;2023-04-05T07:21:35;37.30;88.00
12602;DHT22;30282;16.436;99.370;2023-04-05T07:24:05;37.40;91.00
12602;DHT22;30282;16.436;99.370;2023-04-05T07:26:34;37.50;89.70
12602;DHT22;30282;16.436;99.370;2023-04-05T07:29:04;37.50;87.00
12602;DHT22;30282;16.436;99.370;2023-04-05T07:31:34;37.40;86.20
12602;DHT22;30282;16.436;99.370;2023-04-05T07:34:05;37.40;86.90
12602;DHT22;30282;16.436;99.370;2023-04-05T07:36:34;37.40;87.80
12602;DHT22;30282;16.436;99.370;2023-04-05T07:39:04;37.50;88.80
12602;DHT22;30282;16.436;99.370;2023-04-05T07:41:33;37.60;88.60
12602;DHT22;30282;16.436;99.370;2023-04-05T07:44:03;37.50;88.40
12602;DHT22;30282;16.436;99.370;2023-04-05T07:46:32;37.50;86.00
12602;DHT22;30282;16.436;99.370;2023-04-05T07:49:02;37.50;86.70
12602;DHT22;30282;16.436;99.370;2023-04-05T07:51:33;37.40;88.00
12602;DHT22;30282;16.436;99.370;2023-04-05T07:54:04;37.40;88.20
12602;DHT22;30282;16.436;99.370;2023-04-05T07:56:33;37.40;87.10
12602;DHT22;30282;16.436;99.370;2023-04-05T07:59:04;37.40;88.30
12602;DHT22;30282;16.436;99.370;2023-04-05T08:01:33;37.40;89.60
12602;DHT22;30282;16.436;99.370;2023-04-05T08:04:02;37.60;90.00
12602;DHT22;30282;16.436;99.370;2023-04-05T08:06:33;37.60;90.30
12602;DHT22;30282;16.436;99.370;2023-04-05T08:09:03;37.70;88.70
12602;DHT22;30282;16.436;99.370;2023-04-05T08:11:35;37.60;89.50
12602;DHT22;30282;16.436;99.370;2023-04-05T08:14:04;37.70;90.10
12602;DHT22;30282;16.436;99.370;2023-04-05T08:16:33;37.60;89.20
12602;DHT22;30282;16.436;99.370;2023-04-05T08:19:02;37.60;90.60
12602;DHT22;30282;16.436;99.370;2023-04-05T08:21:33;37.60;89.10
12602;DHT22;30282;16.436;99.370;2023-04-05T08:24:02;37.50;89.40
12602;DHT22;30282;16.436;99.370;2023-04-05T08:26:32;37.50;89.60
12602;DHT22;30282;16.436;99.370;2023-04-05T08:29:01;37.50;90.00
12602;DHT22;30282;16.436;99.370;2023-04-05T08:31:30;37.50;89.20
12602;DHT22;30282;16.436;99.370;2023-04-05T08:33:59;37.50;89.80
12602;DHT22;30282;16.436;99.370;2023-04-05T08:36:29;37.50;90.20
12602;DHT22;30282;16.436;99.370;2023-04-05T08:39:04;37.50;89.70
12602;DHT22;30282;16.436;99.370;2023-04-05T08:41:35;37.50;88.50
12602;DHT22;30282;16.436;99.370;2023-04-05T08:44:05;37.50;88.30
12602;DHT22;30282;16.436;99.370;2023-04-05T08:46:37;37.40;89.00
12602;DHT22;30282;16.436;99.370;2023-04-05T08:49:08;37.40;87.60
12602;DHT22;30282;16.436;99.370;2023-04-05T08:51:37;37.40;87.90
12602;DHT22;30282;16.436;99.370;2023-04-05T08:54:08;37.40;88.60
12602;DHT22;30282;16.436;99.370;2023-04-05T08:56:38;37.40;88.10
12602;DHT22;30282;16.436;99.370;2023-04-05T08:59:09;37.40;87.60
12602;DHT22;30282;16.436;99.370;2023-04-05T09:01:41;37.40;87.50
12602;DHT22;30282;16.436;99.370;2023-04-05T09:04:14;37.30;87.80
12602;DHT22;30282;16.436;99.370;2023-04-05T09:06:44;37.30;88.50
12602;DHT22;30282;16.436;99.370;2023-04-05T09:09:19;37.30;88.80
12602;DHT22;30282;16.436;99.370;2023-04-05T09:11:49;37.30;90.20
12602;DHT22;30282;16.436;99.370;2023-04-05T09:14:19;37.40;90.40
12602;DHT22;30282;16.436;99.370;2023-04-05T09:16:48;37.40;89.70
12602;DHT22;30282;16.436;99.370;2023-04-05T09:19:18;37.40;89.00
12602;DHT22;30282;16.436;99.370;2023-04-05T09:22:00;37.40;88.90
12602;DHT22;30282;16.436;99.370;2023-04-05T09:24:32;37.40;89.50
12602;DHT22;30282;16.436;99.370;2023-04-05T09:27:06;37.40;88.30
12602;DHT22;30282;16.436;99.370;2023-04-05T09:29:36;37.40;88.80
12602;DHT22;30282;16.436;99.370;2023-04-05T09:32:07;37.40;90.10
12602;DHT22;30282;16.436;99.370;2023-04-05T09:34:37;37.40;89.60
12602;DHT22;30282;16.436;99.370;2023-04-05T09:37:12;37.30;88.60
12602;DHT22;30282;16.436;99.370;2023-04-05T09:39:45;37.30;88.10
12602;DHT22;30282;16.436;99.370;2023-04-05T09:42:16;37.30;89.20
12602;DHT22;30282;16.436;99.370;2023-04-05T09:44:49;37.30;88.10
12602;DHT22;30282;16.436;99.370;2023-04-05T09:47:19;37.30;88.80
12602;DHT22;30282;16.436;99.370;2023-04-05T09:49:49;37.30;89.30
12602;DHT22;30282;16.436;99.370;2023-04-05T09:52:22;37.20;88.40
12602;DHT22;30282;16.436;99.370;2023-04-05T09:54:54;37.30;89.70
12602;DHT22;30282;16.436;99.370;2023-04-05T09:57:24;37.20;91.60
12602;DHT22;30282;16.436;99.370;2023-04-05T09:59:54;37.20;90.90
12602;DHT22;30282;16.436;99.370;2023-04-05T10:02:23;37.10;90.80
12602;DHT22;30282;16.436;99.370;2023-04-05T10:04:53;37.10;91.10
12602;DHT22;30282;16.436;99.370;2023-04-05T10:07:22;37.10;90.70
12602;DHT22;30282;16.436;99.370;2023-04-05T10:09:53;37.00;90.90
12602;DHT22;30282;16.436;99.370;2023-04-05T10:12:32;37.00;91.30
12602;DHT22;30282;16.436;99.370;2023-04-05T10:15:20;36.90;91.40
12602;DHT22;30282;16.436;99.370;2023-04-05T10:18:16;36.90;89.70
12602;DHT22;30282;16.436;99.370;2023-04-05T10:20:53;36.80;90.40
12602;DHT22;30282;16.436;99.370;2023-04-05T10:23:45;36.80;90.70
12602;DHT22;30282;16.436;99.370;2023-04-05T10:26:26;36.70;90.30
12602;DHT22;30282;16.436;99.370;2023-04-05T10:29:29;36.70;90.40
12602;DHT22;30282;16.436;99.370;2023-04-05T10:32:45;36.60;91.00
12602;DHT22;30282;16.436;99.370;2023-04-05T10:35:28;36.60;91.50
12602;DHT22;30282;16.436;99.370;2023-04-05T10:38:15;36.50;90.90
12602;DHT22;30282;16.436;99.370;2023-04-05T10:40:46;36.40;91.10
12602;DHT22;30282;16.436;99.370;2023-04-05T10:43:22;36.30;92.00
12602;DHT22;30282;16.436;99.370;2023-04-05T10:45:53;36.30;92.00
12602;DHT22;30282;16.436;99.370;2023-04-05T10:48:39;36.20;91.50
12602;DHT22;30282;16.436;99.370;2023-04-05T10:51:13;36.20;92.40
12602;DHT22;30282;16.436;99.370;2023-04-05T10:53:43;36.20;93.30
12602;DHT22;30282;16.436;99.370;2023-04-05T10:56:13;36.10;93.30
12602;DHT22;30282;16.436;99.370;2023-04-05T10:58:45;36.00;92.90
12602;DHT22;30282;16.436;99.370;2023-04-05T11:01:14;35.90;92.90
12602;DHT22;30282;16.436;99.370;2023-04-05T11:03:46;35.90;93.10
12602;DHT22;30282;16.436;99.370;2023-04-05T11:06:21;35.80;93.10
12602;DHT22;30282;16.436;99.370;2023-04-05T11:08:53;35.70;93.20
12602;DHT22;30282;16.436;99.370;2023-04-05T11:11:23;35.60;93.90
12602;DHT22;30282;16.436;99.370;2023-04-05T11:13:55;35.50;94.00
12602;DHT22;30282;16.436;99.370;2023-04-05T11:16:38;35.30;93.60
12602;DHT22;30282;16.436;99.370;2023-04-05T11:19:09;35.30;93.50
12602;DHT22;30282;16.436;99.370;2023-04-05T11:21:38;35.20;93.40
12602;DHT22;30282;16.436;99.370;2023-04-05T11:24:09;35.10;93.60
12602;DHT22;30282;16.436;99.370;2023-04-05T11:26:54;35.10;94.20
12602;DHT22;30282;16.436;99.370;2023-04-05T11:29:46;35.00;94.30
12602;DHT22;30282;16.436;99.370;2023-04-05T11:32:20;34.90;94.00
12602;DHT22;30282;16.436;99.370;2023-04-05T11:35:00;34.90;94.50
12602;DHT22;30282;16.436;99.370;2023-04-05T11:40:36;34.90;94.50
12602;DHT22;30282;16.436;99.370;2023-04-05T11:43:09;34.80;94.70
12602;DHT22;30282;16.436;99.370;2023-04-05T11:45:41;34.80;95.30
12602;DHT22;30282;16.436;99.370;2023-04-05T11:48:12;34.70;96.00
12602;DHT22;30282;16.436;99.370;2023-04-05T11:50:42;34.60;96.10
12602;DHT22;30282;16.436;99.370;2023-04-05T11:53:11;34.60;96.30
12602;DHT22;30282;16.436;99.370;2023-04-05T11:55:43;34.50;97.00
12602;DHT22;30282;16.436;99.370;2023-04-05T11:58:16;34.50;97.60
12602;DHT22;30282;16.436;99.370;2023-04-05T12:00:57;34.40;98.30
12602;DHT22;30282;16.436;99.370;2023-04-05T12:03:27;34.40;98.70
12602;DHT22;30282;16.436;99.370;2023-04-05T12:05:57;34.30;98.10
12602;DHT22;30282;16.436;99.370;2023-04-05T12:08:38;34.20;98.10
12602;DHT22;30282;16.436;99.370;2023-04-05T12:11:08;34.10;98.10
12602;DHT22;30282;16.436;99.370;2023-04-05T12:13:38;34.10;98.00
12602;DHT22;30282;16.436;99.370;2023-04-05T12:16:10;34.00;98.20
12602;DHT22;30282;16.436;99.370;2023-04-05T12:18:39;34.00;98.10
12602;DHT22;30282;16.436;99.370;2023-04-05T12:21:09;34.00;98.00
12602;DHT22;30282;16.436;99.370;2023-04-05T12:23:38;34.00;98.70
12602;DHT22;30282;16.436;99.370;2023-04-05T12:26:08;34.00;98.70
12602;DHT22;30282;16.436;99.370;2023-04-05T12:28:50;34.00;97.90
12602;DHT22;30282;16.436;99.370;2023-04-05T12:31:37;34.10;97.40
12602;DHT22;30282;16.436;99.370;2023-04-05T12:34:07;34.00;97.90
12602;DHT22;30282;16.436;99.370;2023-04-05T12:36:38;34.00;97.90
12602;DHT22;30282;16.436;99.370;2023-04-05T12:39:10;34.00;98.30
12602;DHT22;30282;16.436;99.370;2023-04-05T12:41:40;33.90;98.10
12602;DHT22;30282;16.436;99.370;2023-04-05T12:44:13;33.90;97.90
12602;DHT22;30282;16.436;99.370;2023-04-05T12:46:45;33.80;97.60
12602;DHT22;30282;16.436;99.370;2023-04-05T12:49:16;33.80;97.10
12602;DHT22;30282;16.436;99.370;2023-04-05T12:51:47;33.80;96.50
12602;DHT22;30282;16.436;99.370;2023-04-05T12:54:21;33.70;96.50
12602;DHT22;30282;16.436;99.370;2023-04-05T12:56:51;33.60;96.10
12602;DHT22;30282;16.436;99.370;2023-04-05T12:59:20;33.60;95.80
12602;DHT22;30282;16.436;99.370;2023-04-05T13:01:51;33.60;96.10
12602;DHT22;30282;16.436;99.370;2023-04-05T13:04:21;33.60;96.30
12602;DHT22;30282;16.436;99.370;2023-04-05T13:06:50;33.60;96.30
12602;DHT22;30282;16.436;99.370;2023-04-05T13:09:20;33.50;96.60
12602;DHT22;30282;16.436;99.370;2023-04-05T13:11:50;33.50;97.10
12602;DHT22;30282;16.436;99.370;2023-04-05T13:14:19;33.40;97.80
12602;DHT22;30282;16.436;99.370;2023-04-05T13:16:50;33.40;98.20
12602;DHT22;30282;16.436;99.370;2023-04-05T13:19:20;33.30;98.60
12602;DHT22;30282;16.436;99.370;2023-04-05T13:21:49;33.10;98.70
12602;DHT22;30282;16.436;99.370;2023-04-05T13:24:18;32.90;98.90
12602;DHT22;30282;16.436;99.370;2023-04-05T13:26:47;32.90;98.50
12602;DHT22;30282;16.436;99.370;2023-04-05T13:29:20;32.80;98.90
12602;DHT22;30282;16.436;99.370;2023-04-05T13:31:51;32.70;98.70
12602;DHT22;30282;16.436;99.370;2023-04-05T13:34:20;32.70;98.50
12602;DHT22;30282;16.436;99.370;2023-04-05T13:36:49;32.70;98.80
12602;DHT22;30282;16.436;99.370;2023-04-05T13:39:18;32.80;99.00
12602;DHT22;30282;16.436;99.370;2023-04-05T13:41:48;32.70;99.30
12602;DHT22;30282;16.436;99.370;2023-04-05T13:44:18;32.70;99.10
12602;DHT22;30282;16.436;99.370;2023-04-05T13:46:47;32.70;99.00
12602;DHT22;30282;16.436;99.370;2023-04-05T13:49:18;32.70;98.80
12602;DHT22;30282;16.436;99.370;2023-04-05T13:51:47;32.70;98.50
12602;DHT22;30282;16.436;99.370;2023-04-05T13:54:16;32.70;97.70
12602;DHT22;30282;16.436;99.370;2023-04-05T13:56:46;32.70;97.80
12602;DHT22;30282;16.436;99.370;2023-04-05T13:59:15;32.80;98.30
12602;DHT22;30282;16.436;99.370;2023-04-05T14:01:45;32.70;99.40
12602;DHT22;30282;16.436;99.370;2023-04-05T14:04:14;32.70;99.90
12602;DHT22;30282;16.436;99.370;2023-04-05T14:06:45;32.70;99.90
12602;DHT22;30282;16.436;99.370;2023-04-05T14:09:15;32.60;99.90
12602;DHT22;30282;16.436;99.370;2023-04-05T14:11:47;32.50;99.90
12602;DHT22;30282;16.436;99.370;2023-04-05T14:14:18;32.40;99.90
12602;DHT22;30282;16.436;99.370;2023-04-05T14:16:51;32.40;99.90
12602;DHT22;30282;16.436;99.370;2023-04-05T14:19:20;32.40;99.90
12602;DHT22;30282;16.436;99.370;2023-04-05T14:21:51;32.40;99.40
12602;DHT22;30282;16.436;99.370;2023-04-05T14:24:21;32.50;98.40
12602;DHT22;30282;16.436;99.370;2023-04-05T14:26:53;32.60;97.80
12602;DHT22;30282;16.436;99.370;2023-04-05T14:29:22;32.60;97.50
12602;DHT22;30282;16.436;99.370;2023-04-05T14:31:54;32.60;97.30
12602;DHT22;30282;16.436;99.370;2023-04-05T14:34:23;32.60;97.40
12602;DHT22;30282;16.436;99.370;2023-04-05T14:36:54;32.50;97.60
12602;DHT22;30282;16.436;99.370;2023-04-05T14:39:26;32.40;98.20
12602;DHT22;30282;16.436;99.370;2023-04-05T14:41:55;32.40;99.00
12602;DHT22;30282;16.436;99.370;2023-04-05T14:44:24;32.30;99.70
12602;DHT22;30282;16.436;99.370;2023-04-05T14:46:54;32.20;99.10
12602;DHT22;30282;16.436;99.370;2023-04-05T14:49:23;32.20;99.30
12602;DHT22;30282;16.436;99.370;2023-04-05T14:51:54;32.20;99.40
12602;DHT22;30282;16.436;99.370;2023-04-05T14:54:24;32.00;99.90
12602;DHT22;30282;16.436;99.370;2023-04-05T14:56:53;32.00;99.90
12602;DHT22;30282;16.436;99.370;2023-04-05T14:59:22;31.90;99.90
12602;DHT22;30282;16.436;99.370;2023-04-05T15:01:53;31.70;99.90
12602;DHT22;30282;16.436;99.370;2023-04-05T15:04:22;31.70;99.90
12602;DHT22;30282;16.436;99.370;2023-04-05T15:06:53;31.70;99.90
12602;DHT22;30282;16.436;99.370;2023-04-05T15:09:23;31.70;99.90
12602;DHT22;30282;16.436;99.370;2023-04-05T15:11:58;31.70;99.90
12602;DHT22;30282;16.436;99.370;2023-04-05T15:14:40;31.80;99.80
12602;DHT22;30282;16.436;99.370;2023-04-05T15:17:17;31.70;99.80
12602;DHT22;30282;16.436;99.370;2023-04-05T15:19:51;31.90;99.90
12602;DHT22;30282;16.436;99.370;2023-04-05T15:22:25;31.90;99.80
12602;DHT22;30282;16.436;99.370;2023-04-05T15:24:55;31.90;99.50
12602;DHT22;30282;16.436;99.370;2023-04-05T15:27:32;31.90;99.70
12602;DHT22;30282;16.436;99.370;2023-04-05T15:30:10;31.80;99.90
12602;DHT22;30282;16.436;99.370;2023-04-05T15:32:44;31.80;99.90
12602;DHT22;30282;16.436;99.370;2023-04-05T15:35:16;31.80;99.90
12602;DHT22;30282;16.436;99.370;2023-04-05T15:37:52;31.70;99.90
12602;DHT22;30282;16.436;99.370;2023-04-05T15:40:24;31.70;99.90
12602;DHT22;30282;16.436;99.370;2023-04-05T15:42:55;31.60;99.90
12602;DHT22;30282;16.436;99.370;2023-04-05T15:45:24;31.50;99.90